Time;durP1;ratioP1;P1;durP2;ratioP2;P2;SDS_P1;SDS_P2;PMS_P1;PMS_P2;Temp;Humidity;BMP_temperature;BMP_pressure;BME280_temperature;BME280_humidity;BME280_pressure;Samples;Min_cycle;Max_cycle;Signal;HPM_P1;HPM_P2
2022/07/25 00:00:06;;;;;;;3.03;2.47;;;21.50;99.90;;;;;;5029060;28;20068;-76
2022/07/25 00:02:32;;;;;;;2.80;1.90;;;21.60;99.90;;;;;;5028589;28;20125;-75
2022/07/25 00:04:57;;;;;;;4.20;2.42;;;21.70;99.90;;;;;;5029704;28;20128;-76
2022/07/25 00:07:23;;;;;;;2.95;2.45;;;21.60;99.90;;;;;;5013239;28;20390;-75
2022/07/25 00:09:49;;;;;;;5.03;2.40;;;21.60;99.90;;;;;;5028796;28;20472;-76
2022/07/25 00:12:14;;;;;;;3.53;2.40;;;21.60;99.90;;;;;;5040478;28;20048;-75
2022/07/25 00:14:40;;;;;;;2.53;2.33;;;21.60;99.90;;;;;;5053523;28;20052;-76
2022/07/25 00:17:06;;;;;;;2.55;2.20;;;21.60;99.90;;;;;;5011576;28;20128;-75
2022/07/25 00:19:31;;;;;;;4.00;2.47;;;21.60;99.90;;;;;;5047916;28;20056;-77
2022/07/25 00:21:57;;;;;;;4.40;2.83;;;21.80;99.90;;;;;;5049019;28;20045;-76
2022/07/25 00:24:23;;;;;;;4.75;2.35;;;21.70;99.90;;;;;;5044964;28;20099;-76
2022/07/25 00:26:48;;;;;;;3.58;2.42;;;21.70;99.90;;;;;;5033154;28;20049;-76
2022/07/25 00:29:14;;;;;;;3.58;2.40;;;21.80;99.90;;;;;;5025709;28;20467;-77
2022/07/25 00:31:40;;;;;;;3.17;2.60;;;21.80;99.90;;;;;;5029605;28;20049;-76
2022/07/25 00:34:06;;;;;;;6.03;2.70;;;21.80;99.90;;;;;;5034373;28;20071;-77
2022/07/25 00:36:31;;;;;;;5.05;2.63;;;21.90;99.90;;;;;;5023193;28;20057;-75
2022/07/25 00:38:57;;;;;;;4.80;2.85;;;21.90;99.90;;;;;;5031496;28;20481;-76
2022/07/25 00:41:23;;;;;;;6.32;2.65;;;21.90;99.90;;;;;;5028878;28;20049;-76
2022/07/25 00:43:48;;;;;;;2.70;2.47;;;21.90;99.90;;;;;;5047252;28;20084;-75
2022/07/25 00:46:15;;;;;;;2.38;2.13;;;21.90;99.90;;;;;;5032758;28;20056;-75
2022/07/25 00:48:41;;;;;;;4.57;2.55;;;21.90;99.90;;;;;;5029616;28;20041;-75
2022/07/25 00:51:09;;;;;;;4.35;2.40;;;21.80;99.90;;;;;;5029009;28;20045;-75
2022/07/25 00:53:35;;;;;;;4.70;2.60;;;21.80;99.90;;;;;;5028362;28;20670;-75
2022/07/25 00:56:02;;;;;;;3.53;2.60;;;21.80;99.90;;;;;;5028355;28;20084;-76
2022/07/25 00:58:28;;;;;;;3.25;2.70;;;21.80;99.90;;;;;;5012763;28;20041;-75
2022/07/25 01:00:54;;;;;;;2.70;2.50;;;21.80;99.90;;;;;;5030196;28;20038;-75
2022/07/25 01:03:20;;;;;;;5.13;2.60;;;21.80;99.90;;;;;;5040792;28;20385;-75
2022/07/25 01:05:46;;;;;;;3.55;2.70;;;21.80;99.90;;;;;;5030057;28;20094;-76
2022/07/25 01:08:12;;;;;;;4.68;2.60;;;21.80;99.90;;;;;;5021178;28;20186;-76
2022/07/25 01:10:38;;;;;;;3.58;2.53;;;21.80;99.90;;;;;;5035654;28;20570;-74
2022/07/25 01:13:04;;;;;;;3.97;2.92;;;21.80;99.90;;;;;;5046999;28;20132;-75
2022/07/25 01:15:30;;;;;;;3.08;2.83;;;21.80;99.90;;;;;;5056069;28;20431;-75
2022/07/25 01:17:56;;;;;;;3.20;2.83;;;21.80;99.90;;;;;;5032727;28;20048;-76
2022/07/25 01:20:27;;;;;;;4.38;3.08;;;21.80;99.90;;;;;;5033836;28;20049;-76
2022/07/25 01:22:53;;;;;;;4.35;2.90;;;21.80;99.90;;;;;;5051340;28;20041;-76
2022/07/25 01:25:19;;;;;;;4.10;3.20;;;21.70;99.90;;;;;;5035815;28;20048;-75
2022/07/25 01:27:46;;;;;;;4.22;3.20;;;21.70;99.90;;;;;;5020411;28;20049;-75
2022/07/25 01:30:14;;;;;;;5.10;3.30;;;21.70;99.90;;;;;;5039100;28;20077;-75
2022/07/25 01:32:40;;;;;;;3.95;3.38;;;21.70;99.90;;;;;;5031437;28;20034;-75
2022/07/25 01:35:08;;;;;;;3.40;3.10;;;21.60;99.90;;;;;;5032279;28;20079;-75
2022/07/25 01:37:34;;;;;;;5.55;2.80;;;21.60;99.90;;;;;;5041021;28;20508;-75
2022/07/25 01:40:00;;;;;;;5.93;3.10;;;21.50;99.90;;;;;;5036726;28;20053;-75
2022/07/25 01:42:26;;;;;;;4.63;3.35;;;21.50;99.90;;;;;;5042881;28;20144;-77
2022/07/25 01:44:52;;;;;;;5.63;3.00;;;21.50;99.90;;;;;;5035806;28;20045;-75
2022/07/25 01:47:18;;;;;;;6.22;3.38;;;21.50;99.90;;;;;;5032094;28;20064;-74
2022/07/25 01:49:44;;;;;;;3.85;2.95;;;21.50;99.90;;;;;;5037742;28;20116;-75
2022/07/25 01:52:10;;;;;;;4.30;2.92;;;21.40;99.90;;;;;;5039604;28;20464;-74
2022/07/25 01:54:36;;;;;;;3.63;3.28;;;21.40;99.90;;;;;;5051640;28;20053;-74
2022/07/25 01:57:02;;;;;;;3.78;3.30;;;21.40;99.90;;;;;;5035827;28;20447;-75
2022/07/25 01:59:28;;;;;;;5.32;3.03;;;21.30;99.90;;;;;;5050892;28;20545;-74
2022/07/25 02:01:53;;;;;;;3.22;2.80;;;21.30;99.90;;;;;;5052561;28;20132;-75
2022/07/25 02:04:19;;;;;;;6.43;2.83;;;21.20;99.90;;;;;;5051744;28;20071;-75
2022/07/25 02:06:45;;;;;;;3.88;2.95;;;21.20;99.90;;;;;;5035906;28;20384;-75
2022/07/25 02:09:10;;;;;;;4.70;3.80;;;21.20;99.90;;;;;;5050352;28;20117;-75
2022/07/25 02:11:36;;;;;;;3.97;3.20;;;21.30;99.90;;;;;;5049007;28;20056;-75
2022/07/25 02:14:02;;;;;;;3.65;3.35;;;21.30;99.90;;;;;;5051853;28;20045;-74
2022/07/25 02:16:28;;;;;;;3.58;3.28;;;21.30;99.90;;;;;;5043675;28;20073;-75
2022/07/25 02:18:54;;;;;;;4.10;3.20;;;21.20;99.90;;;;;;5027220;28;20123;-75
2022/07/25 02:21:20;;;;;;;4.68;3.10;;;21.10;99.90;;;;;;5031118;28;20407;-75
2022/07/25 02:23:46;;;;;;;3.42;2.97;;;21.10;99.90;;;;;;5034812;28;20598;-75
2022/07/25 02:26:12;;;;;;;3.65;3.15;;;21.10;99.90;;;;;;5045080;28;20120;-74
2022/07/25 02:28:38;;;;;;;5.32;3.28;;;21.00;99.90;;;;;;5034707;28;20041;-75
2022/07/25 02:31:04;;;;;;;3.28;2.97;;;20.90;99.90;;;;;;5031211;28;20050;-75
2022/07/25 02:33:30;;;;;;;7.55;3.10;;;20.90;99.90;;;;;;5044468;28;20563;-75
2022/07/25 02:35:55;;;;;;;6.18;3.25;;;20.90;99.90;;;;;;5052288;28;20143;-75
2022/07/25 02:38:21;;;;;;;4.70;3.42;;;20.80;99.90;;;;;;5021808;28;20060;-75
2022/07/25 02:40:48;;;;;;;3.80;3.22;;;20.80;99.90;;;;;;5038538;28;20410;-75
2022/07/25 02:43:15;;;;;;;4.47;3.05;;;20.60;99.90;;;;;;5036621;28;20157;-75
2022/07/25 02:45:41;;;;;;;4.00;3.22;;;20.60;99.90;;;;;;5041468;28;20045;-75
2022/07/25 02:48:07;;;;;;;3.53;3.22;;;20.60;99.90;;;;;;5023497;28;20123;-75
2022/07/25 02:50:33;;;;;;;7.22;3.63;;;20.50;99.90;;;;;;5032320;28;20510;-75
2022/07/25 02:52:59;;;;;;;5.80;3.53;;;20.40;99.90;;;;;;5033048;28;20055;-74
2022/07/25 02:55:25;;;;;;;4.68;3.42;;;20.40;99.90;;;;;;5050504;28;20041;-75
2022/07/25 02:57:50;;;;;;;3.92;3.53;;;20.40;99.90;;;;;;5032108;28;20060;-74
2022/07/25 03:00:16;;;;;;;5.35;4.47;;;20.40;99.90;;;;;;5040706;28;20143;-75
2022/07/25 03:02:43;;;;;;;7.38;5.32;;;20.20;99.90;;;;;;5066428;28;20048;-75
2022/07/25 03:05:10;;;;;;;5.28;4.60;;;20.10;99.90;;;;;;5050337;28;20132;-76
2022/07/25 03:07:37;;;;;;;6.60;4.97;;;20.10;99.90;;;;;;5033840;28;20041;-74
2022/07/25 03:10:07;;;;;;;8.13;5.18;;;20.10;99.90;;;;;;5051671;28;20507;-75
2022/07/25 03:12:33;;;;;;;6.32;4.90;;;20.00;99.90;;;;;;5048527;28;20073;-75
2022/07/25 03:14:59;;;;;;;6.35;4.80;;;20.00;99.90;;;;;;5056236;28;20071;-75
2022/07/25 03:17:25;;;;;;;5.68;5.00;;;20.00;99.90;;;;;;5036751;28;20037;-74
2022/07/25 03:19:51;;;;;;;5.20;4.70;;;20.00;99.90;;;;;;5029866;28;20057;-75
2022/07/25 03:22:16;;;;;;;9.15;5.35;;;19.90;99.90;;;;;;5028034;28;20052;-75
2022/07/25 03:24:42;;;;;;;6.47;5.40;;;19.90;99.90;;;;;;5045600;28;20077;-75
2022/07/25 03:27:08;;;;;;;5.95;5.35;;;19.90;99.90;;;;;;5031585;28;20053;-74
2022/07/25 03:29:34;;;;;;;8.88;6.03;;;19.80;99.90;;;;;;5045375;28;20123;-75
2022/07/25 03:32:00;;;;;;;6.53;5.07;;;19.70;99.90;;;;;;5049249;28;20040;-75
2022/07/25 03:34:26;;;;;;;7.35;5.65;;;19.70;99.90;;;;;;5028858;28;20488;-74
2022/07/25 03:36:52;;;;;;;6.55;5.28;;;19.60;99.90;;;;;;5015532;28;20436;-74
2022/07/25 03:39:19;;;;;;;6.72;5.38;;;19.70;99.90;;;;;;5031178;28;20051;-74
2022/07/25 03:41:45;;;;;;;7.00;5.50;;;19.70;99.90;;;;;;5032583;28;20048;-75
2022/07/25 03:44:11;;;;;;;7.80;6.55;;;19.70;99.90;;;;;;5048768;28;20045;-75
2022/07/25 03:46:37;;;;;;;8.30;5.80;;;19.60;99.90;;;;;;5028086;28;20120;-75
2022/07/25 03:49:03;;;;;;;9.02;6.65;;;19.60;99.90;;;;;;5031184;28;20042;-75
2022/07/25 03:51:29;;;;;;;8.05;6.63;;;19.50;99.90;;;;;;5042513;28;20053;-75
2022/07/25 03:54:01;;;;;;;9.63;7.03;;;19.50;99.90;;;;;;5028659;28;20064;-75
2022/07/25 03:56:31;;;;;;;7.63;6.60;;;19.60;99.90;;;;;;5017158;28;20048;-75
2022/07/25 03:58:57;;;;;;;9.23;6.40;;;19.70;99.90;;;;;;5027005;28;20048;-74
2022/07/25 04:01:23;;;;;;;8.10;6.82;;;19.70;99.90;;;;;;5030611;28;20683;-74
2022/07/25 04:03:48;;;;;;;9.75;6.70;;;19.70;99.90;;;;;;5028619;28;20191;-75
2022/07/25 04:06:14;;;;;;;8.05;6.05;;;19.60;99.90;;;;;;5054760;28;20059;-75
2022/07/25 04:08:40;;;;;;;7.82;7.03;;;19.60;99.90;;;;;;5030486;28;20057;-74
2022/07/25 04:11:05;;;;;;;9.25;7.55;;;19.70;99.90;;;;;;5033422;28;20443;-75
2022/07/25 04:13:31;;;;;;;7.70;6.85;;;19.70;99.90;;;;;;5049745;28;20045;-76
2022/07/25 04:15:57;;;;;;;9.60;7.22;;;19.70;99.90;;;;;;5058383;28;20061;-75
2022/07/25 04:18:22;;;;;;;8.27;7.30;;;19.70;99.90;;;;;;5014151;28;20052;-75
2022/07/25 04:20:48;;;;;;;11.85;8.40;;;19.70;99.90;;;;;;5045210;28;20510;-75
2022/07/25 04:23:14;;;;;;;9.02;7.57;;;19.70;99.90;;;;;;5048783;28;20051;-74
2022/07/25 04:25:39;;;;;;;9.68;8.02;;;19.70;99.90;;;;;;5030316;28;20322;-75
2022/07/25 04:28:05;;;;;;;9.23;7.57;;;19.70;99.90;;;;;;5022784;28;20049;-75
2022/07/25 04:30:31;;;;;;;8.88;7.97;;;19.70;99.90;;;;;;5026184;28;20120;-75
2022/07/25 04:32:56;;;;;;;9.40;8.55;;;19.70;99.90;;;;;;5029491;28;20511;-75
2022/07/25 04:35:22;;;;;;;10.93;8.63;;;19.70;99.90;;;;;;5047320;28;20041;-75
2022/07/25 04:37:48;;;;;;;9.55;8.52;;;19.70;99.90;;;;;;5034160;28;20060;-74
2022/07/25 04:40:14;;;;;;;11.82;9.73;;;19.70;99.90;;;;;;5046687;28;20057;-74
2022/07/25 04:42:39;;;;;;;15.07;9.88;;;19.70;99.90;;;;;;5038382;28;20120;-74
2022/07/25 04:45:05;;;;;;;13.70;10.05;;;19.70;99.90;;;;;;5037766;28;20095;-75
2022/07/25 04:47:31;;;;;;;11.13;9.80;;;19.80;99.90;;;;;;5023979;28;20597;-74
2022/07/25 04:49:57;;;;;;;12.93;9.45;;;19.80;99.90;;;;;;5030286;28;20088;-74
2022/07/25 04:52:22;;;;;;;11.35;9.52;;;19.80;99.90;;;;;;5029684;28;20068;-74
2022/07/25 04:54:48;;;;;;;12.40;9.98;;;19.90;99.90;;;;;;5030955;28;20474;-75
2022/07/25 04:57:14;;;;;;;10.43;9.38;;;19.90;99.90;;;;;;5027328;28;20461;-75
2022/07/25 04:59:39;;;;;;;11.50;9.73;;;20.00;99.90;;;;;;5046910;28;20121;-75
2022/07/25 05:02:05;;;;;;;11.25;9.45;;;20.00;99.90;;;;;;5035779;28;20089;-75
2022/07/25 05:04:31;;;;;;;11.10;9.80;;;20.00;99.90;;;;;;5059760;28;20396;-75
2022/07/25 05:06:57;;;;;;;13.32;10.45;;;20.10;99.90;;;;;;5028813;28;20040;-75
2022/07/25 05:09:22;;;;;;;11.35;9.68;;;20.20;99.90;;;;;;5038712;28;20045;-76
2022/07/25 05:11:48;;;;;;;10.90;9.80;;;20.20;99.90;;;;;;5047119;28;20036;-77
2022/07/25 05:14:13;;;;;;;12.88;10.27;;;20.30;99.90;;;;;;5037144;28;20056;-78
2022/07/25 05:16:39;;;;;;;11.80;9.90;;;20.30;99.90;;;;;;5041080;28;20056;-76
2022/07/25 05:19:05;;;;;;;12.63;9.85;;;20.30;99.90;;;;;;5047179;28;20399;-76
2022/07/25 05:21:31;;;;;;;10.52;9.32;;;20.30;99.90;;;;;;5053652;28;20454;-75
2022/07/25 05:23:57;;;;;;;11.85;10.20;;;20.30;99.90;;;;;;5047495;28;20116;-76
2022/07/25 05:26:22;;;;;;;12.20;9.38;;;20.40;99.90;;;;;;5041893;28;20458;-76
2022/07/25 05:28:48;;;;;;;11.05;9.55;;;20.50;99.90;;;;;;5040839;28;20476;-76
2022/07/25 05:31:13;;;;;;;10.50;9.40;;;20.40;99.90;;;;;;5052324;28;20053;-76
2022/07/25 05:33:39;;;;;;;11.98;10.05;;;20.50;99.90;;;;;;5051245;28;20049;-75
2022/07/25 05:36:07;;;;;;;12.50;9.77;;;20.50;99.90;;;;;;5053208;28;20129;-76
2022/07/25 05:38:33;;;;;;;13.00;10.60;;;20.60;99.90;;;;;;5026977;28;20057;-76
2022/07/25 05:40:59;;;;;;;11.90;9.75;;;20.60;99.90;;;;;;5034078;28;20798;-76
2022/07/25 05:43:24;;;;;;;13.57;10.50;;;20.60;99.90;;;;;;5039211;28;20076;-75
2022/07/25 05:45:51;;;;;;;12.00;10.57;;;20.60;99.90;;;;;;5045002;28;20055;-75
2022/07/25 05:48:17;;;;;;;15.50;9.82;;;20.70;99.90;;;;;;5026100;28;20068;-75
2022/07/25 05:50:44;;;;;;;12.45;9.88;;;20.70;99.90;;;;;;5042747;28;20041;-75
2022/07/25 05:53:11;;;;;;;13.15;10.43;;;20.70;99.90;;;;;;5032098;28;20057;-75
2022/07/25 05:55:36;;;;;;;12.00;10.57;;;20.70;99.90;;;;;;5032078;28;20045;-75
2022/07/25 05:58:02;;;;;;;12.73;10.70;;;20.70;99.90;;;;;;5034075;28;20400;-75
2022/07/25 06:00:28;;;;;;;15.18;11.80;;;20.80;99.90;;;;;;5053114;28;20041;-76
2022/07/25 06:02:58;;;;;;;12.70;11.32;;;20.90;99.90;;;;;;5050835;28;20055;-75
2022/07/25 06:05:24;;;;;;;13.55;11.68;;;20.90;99.90;;;;;;5052239;28;20057;-75
2022/07/25 06:07:49;;;;;;;12.43;11.15;;;21.00;99.90;;;;;;5018634;28;20045;-76
2022/07/25 06:10:15;;;;;;;15.10;11.30;;;21.00;99.90;;;;;;5044359;28;20053;-76
2022/07/25 06:12:40;;;;;;;13.15;11.40;;;21.10;99.90;;;;;;5059955;28;20191;-75
2022/07/25 06:15:07;;;;;;;13.63;11.63;;;21.00;99.90;;;;;;5028929;28;20048;-76
2022/07/25 06:17:32;;;;;;;12.60;10.98;;;21.10;99.90;;;;;;5039577;28;20056;-75
2022/07/25 06:19:58;;;;;;;13.90;11.30;;;21.10;99.90;;;;;;5032642;28;20049;-76
2022/07/25 06:22:23;;;;;;;15.00;12.68;;;21.20;99.90;;;;;;5030103;28;20069;-77
2022/07/25 06:24:49;;;;;;;15.60;11.95;;;21.20;99.90;;;;;;5040899;28;20057;-76
2022/07/25 06:27:15;;;;;;;13.43;12.02;;;21.30;99.90;;;;;;5020334;28;20056;-76
2022/07/25 06:29:41;;;;;;;16.13;11.85;;;21.30;99.90;;;;;;5045336;28;20067;-77
2022/07/25 06:32:06;;;;;;;15.80;12.38;;;21.30;99.90;;;;;;5050503;28;20186;-75
2022/07/25 06:34:32;;;;;;;14.27;11.25;;;21.40;99.90;;;;;;5050827;28;20476;-77
2022/07/25 06:36:58;;;;;;;13.27;11.88;;;21.40;99.90;;;;;;5002381;28;20771;-76
2022/07/25 06:39:24;;;;;;;14.27;11.50;;;21.40;99.90;;;;;;5040894;28;20630;-76
2022/07/25 06:41:50;;;;;;;14.07;12.05;;;21.50;99.90;;;;;;5037885;28;20037;-76
2022/07/25 06:44:16;;;;;;;16.77;12.18;;;21.50;99.90;;;;;;5040883;28;20099;-76
2022/07/25 06:46:41;;;;;;;13.77;12.25;;;21.50;99.90;;;;;;5020570;28;20095;-76
2022/07/25 06:49:07;;;;;;;15.63;11.13;;;21.50;99.90;;;;;;5033805;28;20057;-76
2022/07/25 06:51:33;;;;;;;13.98;10.43;;;21.60;99.90;;;;;;5038737;28;20052;-76
2022/07/25 06:54:00;;;;;;;13.73;11.43;;;21.60;99.90;;;;;;5039863;28;20086;-75
2022/07/25 06:56:30;;;;;;;14.30;11.10;;;21.60;99.90;;;;;;5018371;28;20136;-76
2022/07/25 06:58:56;;;;;;;13.30;11.32;;;21.70;99.90;;;;;;5036738;28;20049;-76
2022/07/25 07:01:22;;;;;;;11.98;10.02;;;21.70;99.90;;;;;;5038804;28;20045;-76
2022/07/25 07:03:47;;;;;;;12.27;10.93;;;21.80;99.90;;;;;;5039837;28;20045;-75
2022/07/25 07:06:13;;;;;;;13.85;11.23;;;21.90;99.90;;;;;;5029729;28;20527;-75
2022/07/25 07:08:39;;;;;;;13.77;10.60;;;22.00;99.90;;;;;;5031919;28;20036;-75
2022/07/25 07:11:06;;;;;;;11.63;10.45;;;22.10;99.90;;;;;;5036399;28;20655;-77
2022/07/25 07:13:32;;;;;;;11.77;10.43;;;22.10;99.90;;;;;;5038145;28;20056;-75
2022/07/25 07:15:58;;;;;;;10.98;9.85;;;22.20;99.90;;;;;;5041699;28;20041;-77
2022/07/25 07:18:24;;;;;;;15.98;9.65;;;22.20;99.90;;;;;;5017202;28;20103;-75
2022/07/25 07:20:51;;;;;;;11.85;10.02;;;22.30;99.90;;;;;;5038004;28;20045;-75
2022/07/25 07:23:17;;;;;;;13.05;9.48;;;22.30;99.90;;;;;;5032225;28;20267;-76
2022/07/25 07:25:44;;;;;;;13.73;9.48;;;22.40;99.90;;;;;;5032904;28;20045;-76
2022/07/25 07:28:10;;;;;;;12.13;9.52;;;22.50;99.90;;;;;;5020116;28;20118;-75
2022/07/25 07:30:35;;;;;;;11.60;8.82;;;22.50;99.90;;;;;;5036435;28;20106;-76
2022/07/25 07:33:01;;;;;;;9.75;8.60;;;22.60;99.90;;;;;;5046195;28;20062;-76
2022/07/25 07:35:27;;;;;;;10.90;8.50;;;22.60;99.90;;;;;;5032860;28;20183;-76
2022/07/25 07:37:53;;;;;;;10.20;8.07;;;22.70;99.90;;;;;;5031029;28;20067;-74
2022/07/25 07:40:19;;;;;;;11.70;8.93;;;22.80;99.90;;;;;;5046216;28;20100;-76
2022/07/25 07:42:46;;;;;;;10.18;7.80;;;22.90;99.90;;;;;;5043033;28;20052;-75
2022/07/25 07:45:17;;;;;;;13.02;7.38;;;22.80;99.90;;;;;;5042173;28;20144;-75
2022/07/25 07:47:47;;;;;;;8.23;7.20;;;22.90;99.90;;;;;;5023819;28;20577;-75
2022/07/25 07:50:14;;;;;;;10.30;6.20;;;23.00;99.90;;;;;;5042062;28;20049;-76
2022/07/25 07:52:41;;;;;;;8.88;6.00;;;23.10;99.90;;;;;;5036959;28;20052;-75
2022/07/25 07:57:51;;;;;;;8.05;4.95;;;23.20;99.90;;;;;;5026953;28;20094;-75
2022/07/25 08:00:18;;;;;;;7.82;5.68;;;23.20;99.90;;;;;;5032467;28;20140;-75
2022/07/25 08:02:46;;;;;;;9.25;5.03;;;23.20;99.90;;;;;;5039622;28;20051;-75
2022/07/25 08:05:18;;;;;;;6.03;4.30;;;23.20;99.90;;;;;;5040028;28;20045;-76
2022/07/25 08:07:43;;;;;;;8.38;4.10;;;23.20;99.90;;;;;;5028745;28;20041;-74
2022/07/25 08:10:09;;;;;;;5.70;4.20;;;23.40;99.90;;;;;;5035024;28;20045;-74
2022/07/25 08:12:40;;;;;;;5.55;3.83;;;23.60;99.90;;;;;;5047989;28;20094;-75
2022/07/25 08:15:08;;;;;;;6.10;3.95;;;23.60;99.90;;;;;;5029599;28;20041;-75
2022/07/25 08:17:33;;;;;;;6.00;3.60;;;23.60;99.90;;;;;;5012589;28;20073;-74
2022/07/25 08:19:59;;;;;;;9.32;4.00;;;23.60;99.90;;;;;;5024268;28;20080;-76
2022/07/25 08:22:40;;;;;;;5.63;4.38;;;23.70;99.90;;;;;;5025579;28;20541;-74
2022/07/25 08:25:13;;;;;;;6.68;4.63;;;23.60;99.90;;;;;;5032793;28;20080;-74
2022/07/25 08:27:39;;;;;;;7.43;5.03;;;23.50;99.90;;;;;;5016336;28;20045;-76
2022/07/25 08:30:06;;;;;;;6.90;4.38;;;23.30;99.90;;;;;;5032803;28;20047;-75
2022/07/25 08:32:32;;;;;;;5.93;4.30;;;23.30;99.90;;;;;;5034375;28;20053;-76
2022/07/25 08:35:00;;;;;;;6.65;4.07;;;23.30;99.90;;;;;;5046550;28;20119;-75
2022/07/25 08:37:27;;;;;;;6.28;3.88;;;23.10;99.90;;;;;;5030827;28;20057;-74
2022/07/25 08:39:52;;;;;;;4.20;3.25;;;23.10;99.90;;;;;;5043847;28;20129;-76
2022/07/25 08:42:19;;;;;;;4.90;2.30;;;22.80;99.90;;;;;;5043414;28;20169;-75
2022/07/25 08:44:54;;;;;;;5.75;1.85;;;22.60;99.90;;;;;;5041042;28;20124;-75
2022/07/25 08:47:21;;;;;;;4.72;1.80;;;22.40;99.90;;;;;;5024979;28;20049;-76
2022/07/25 08:49:47;;;;;;;3.45;2.10;;;22.30;99.90;;;;;;5045637;28;20041;-74
2022/07/25 08:52:13;;;;;;;8.00;1.85;;;22.10;99.90;;;;;;5040321;28;20495;-74
2022/07/25 08:54:40;;;;;;;2.83;2.00;;;22.00;99.90;;;;;;5040268;28;20598;-77
2022/07/25 08:57:06;;;;;;;3.17;1.92;;;21.90;99.90;;;;;;5017915;28;20567;-76
2022/07/25 08:59:32;;;;;;;4.13;1.65;;;21.80;99.90;;;;;;5044288;28;20040;-75
2022/07/25 09:02:01;;;;;;;2.88;1.33;;;21.80;99.90;;;;;;5042941;28;20044;-74
2022/07/25 09:04:29;;;;;;;3.00;1.70;;;21.80;99.90;;;;;;5043377;28;20033;-74
2022/07/25 09:06:55;;;;;;;4.57;1.83;;;21.80;99.90;;;;;;5027556;28;20129;-74
2022/07/25 09:09:37;;;;;;;1.92;1.40;;;21.90;99.90;;;;;;5030818;28;20754;-75
2022/07/25 09:12:06;;;;;;;4.78;1.52;;;21.90;99.90;;;;;;5036076;28;20057;-74
2022/07/25 09:14:41;;;;;;;4.13;1.50;;;21.90;99.90;;;;;;5038370;28;20090;-75
2022/07/25 09:17:07;;;;;;;9.15;1.83;;;21.90;99.90;;;;;;5016182;28;20065;-76
2022/07/25 09:19:33;;;;;;;3.50;1.60;;;21.80;99.90;;;;;;5032720;28;20099;-76
2022/07/25 09:22:07;;;;;;;2.97;1.60;;;21.80;99.90;;;;;;5009297;28;20060;-75
2022/07/25 09:24:33;;;;;;;2.95;1.17;;;21.80;99.90;;;;;;5029652;28;20054;-75
2022/07/25 09:27:08;;;;;;;4.88;1.40;;;21.70;99.90;;;;;;5021148;28;20049;-74
2022/07/25 09:29:37;;;;;;;3.75;1.27;;;21.70;99.90;;;;;;5030124;28;20527;-74
2022/07/25 09:32:18;;;;;;;3.17;1.30;;;21.70;99.90;;;;;;5028686;28;20057;-75
2022/07/25 09:34:46;;;;;;;3.03;1.27;;;21.70;99.90;;;;;;5026859;28;20057;-76
2022/07/25 09:37:17;;;;;;;2.75;1.27;;;21.70;99.90;;;;;;5024868;28;20045;-75
2022/07/25 09:39:45;;;;;;;1.92;1.38;;;21.80;99.90;;;;;;5028864;28;20045;-76
2022/07/25 09:42:15;;;;;;;4.15;1.65;;;21.90;99.90;;;;;;5035015;28;20498;-75
2022/07/25 09:44:41;;;;;;;2.72;1.35;;;22.00;99.90;;;;;;5039631;28;20385;-75
2022/07/25 09:47:12;;;;;;;3.33;1.55;;;22.10;99.90;;;;;;5024915;28;20060;-76
2022/07/25 09:49:40;;;;;;;3.58;1.55;;;22.10;99.90;;;;;;5033767;28;20045;-76
2022/07/25 09:52:06;;;;;;;4.45;1.52;;;22.10;99.90;;;;;;5040604;28;20513;-77
2022/07/25 09:54:33;;;;;;;4.55;2.30;;;22.10;99.90;;;;;;5036467;28;20119;-74
2022/07/25 09:56:58;;;;;;;3.10;1.42;;;22.00;99.90;;;;;;5025042;28;20492;-75
2022/07/25 09:59:24;;;;;;;5.15;1.85;;;21.90;99.90;;;;;;5041052;28;20124;-75
2022/07/25 10:02:10;;;;;;;4.72;1.60;;;21.80;99.90;;;;;;5041273;28;20059;-76
2022/07/25 10:04:41;;;;;;;4.90;1.98;;;21.70;99.90;;;;;;5046700;28;20044;-74
2022/07/25 10:07:11;;;;;;;3.58;2.00;;;21.60;99.90;;;;;;5030788;28;20052;-75
2022/07/25 10:09:48;;;;;;;6.00;2.10;;;21.40;99.90;;;;;;5046049;28;20055;-74
2022/07/25 10:12:18;;;;;;;6.80;2.22;;;21.20;99.90;;;;;;5037869;28;20149;-74
2022/07/25 10:15:04;;;;;;;3.78;2.58;;;21.30;99.90;;;;;;5048614;28;20063;-78
2022/07/25 10:17:30;;;;;;;5.38;2.45;;;21.40;99.90;;;;;;5017341;28;20041;-76
2022/07/25 10:19:55;;;;;;;6.28;2.60;;;21.30;99.90;;;;;;5048043;28;20048;-75
2022/07/25 10:22:21;;;;;;;5.10;2.22;;;21.30;99.90;;;;;;5046096;28;20095;-76
2022/07/25 10:24:47;;;;;;;5.63;2.22;;;21.20;99.90;;;;;;5037742;28;20072;-76
2022/07/25 10:27:20;;;;;;;5.47;2.47;;;21.20;99.90;;;;;;5011032;28;20492;-77
2022/07/25 10:29:52;;;;;;;5.72;2.65;;;21.30;99.90;;;;;;5041631;28;20134;-76
2022/07/25 10:32:17;;;;;;;5.72;2.65;;;21.30;99.90;;;;;;5047680;28;20673;-77
2022/07/25 10:34:52;;;;;;;4.93;2.50;;;21.30;99.90;;;;;;5031148;28;20057;-74
2022/07/25 10:37:19;;;;;;;4.63;2.35;;;21.30;99.90;;;;;;5032198;28;20077;-77
2022/07/25 10:39:49;;;;;;;6.95;2.35;;;21.40;99.90;;;;;;5030832;28;20179;-77
2022/07/25 10:42:19;;;;;;;5.40;2.50;;;21.40;99.90;;;;;;5041440;28;20089;-76
2022/07/25 10:44:56;;;;;;;4.57;2.45;;;21.60;99.90;;;;;;5035091;28;20140;-78
2022/07/25 10:47:25;;;;;;;4.80;1.48;;;21.70;99.90;;;;;;5025771;28;20392;-76
2022/07/25 10:49:57;;;;;;;7.55;2.38;;;21.70;99.90;;;;;;5043751;28;20045;-78
2022/07/25 10:52:26;;;;;;;7.72;2.28;;;21.90;99.90;;;;;;5047515;28;24910;-74
2022/07/25 10:54:58;;;;;;;7.45;1.75;;;22.00;99.90;;;;;;5047467;28;20718;-77
2022/07/25 10:57:25;;;;;;;6.30;2.20;;;22.10;99.90;;;;;;5029692;28;20045;-79
2022/07/25 10:59:51;;;;;;;5.45;2.22;;;22.30;99.90;;;;;;5043702;28;20048;-79
2022/07/25 11:02:17;;;;;;;7.85;2.20;;;22.30;99.90;;;;;;5041373;28;20080;-79
2022/07/25 11:05:00;;;;;;;8.55;2.63;;;22.20;99.90;;;;;;5033561;28;20045;-79
2022/07/25 11:07:27;;;;;;;8.77;2.50;;;22.20;99.90;;;;;;5023300;28;20090;-79
2022/07/25 11:10:02;;;;;;;4.78;2.22;;;22.10;99.90;;;;;;5029666;28;20055;-76
2022/07/25 11:12:28;;;;;;;8.23;2.60;;;22.00;99.90;;;;;;5045797;28;20056;-78
2022/07/25 11:15:02;;;;;;;6.72;2.40;;;22.00;99.90;;;;;;5049840;28;20110;-78
2022/07/25 11:17:29;;;;;;;6.38;2.13;;;22.00;99.90;;;;;;5022448;28;20125;-79
2022/07/25 11:20:02;;;;;;;11.30;2.65;;;22.10;99.90;;;;;;5043848;28;20075;-77
2022/07/25 11:22:30;;;;;;;4.50;2.35;;;22.30;99.90;;;;;;5038438;28;20038;-76
2022/07/25 11:24:56;;;;;;;6.72;2.55;;;22.30;99.90;;;;;;5045657;28;20086;-76
2022/07/25 11:27:23;;;;;;;8.23;2.28;;;22.30;99.90;;;;;;5024336;28;20042;-74
2022/07/25 11:29:49;;;;;;;4.43;1.90;;;22.30;99.90;;;;;;5027423;28;20458;-76
2022/07/25 11:32:15;;;;;;;9.07;2.53;;;22.30;99.90;;;;;;5041499;28;20033;-77
2022/07/25 11:34:52;;;;;;;8.77;2.92;;;22.00;99.90;;;;;;5045103;28;20072;-76
2022/07/25 11:37:18;;;;;;;8.30;2.50;;;21.60;99.90;;;;;;5014584;28;20058;-81
2022/07/25 11:39:46;;;;;;;11.38;2.78;;;21.50;99.90;;;;;;5040151;28;20083;-77
2022/07/25 11:42:16;;;;;;;8.07;2.15;;;21.50;99.90;;;;;;5045750;28;20594;-78
2022/07/25 11:44:46;;;;;;;12.63;3.25;;;21.70;99.90;;;;;;5042952;28;20056;-76
2022/07/25 11:47:30;;;;;;;6.82;2.55;;;21.70;99.90;;;;;;5009840;28;20041;-77
2022/07/25 11:50:04;;;;;;;10.85;2.45;;;21.90;99.90;;;;;;5029395;28;20059;-76
2022/07/25 11:52:33;;;;;;;9.13;2.90;;;21.90;99.90;;;;;;5039671;28;20067;-76
2022/07/25 11:55:02;;;;;;;6.05;2.08;;;21.90;99.90;;;;;;5038727;28;20389;-75
2022/07/25 11:57:31;;;;;;;9.57;2.90;;;21.70;99.90;;;;;;5023552;28;20041;-76
2022/07/25 11:59:59;;;;;;;8.95;2.35;;;21.70;99.90;;;;;;5034497;28;20479;-75
2022/07/25 12:02:29;;;;;;;9.00;2.53;;;21.70;99.90;;;;;;5036355;28;20534;-76
2022/07/25 12:04:56;;;;;;;9.20;2.88;;;21.80;99.90;;;;;;5050824;28;20492;-77
2022/07/25 12:07:32;;;;;;;8.85;2.78;;;21.80;99.90;;;;;;5024344;28;20045;-75
2022/07/25 12:09:58;;;;;;;8.52;2.90;;;21.80;99.90;;;;;;5039209;28;20492;-76
2022/07/25 12:12:23;;;;;;;9.20;2.83;;;21.80;99.90;;;;;;5037517;28;20048;-72
2022/07/25 12:14:51;;;;;;;9.80;2.58;;;21.80;99.90;;;;;;5042191;28;20098;-77
2022/07/25 12:17:17;;;;;;;10.63;2.58;;;21.80;99.90;;;;;;5034081;28;20408;-77
2022/07/25 12:19:46;;;;;;;8.15;2.70;;;21.80;99.90;;;;;;5035807;28;20127;-76
2022/07/25 12:22:12;;;;;;;9.00;2.35;;;21.80;99.90;;;;;;5032499;28;20838;-78
2022/07/25 12:24:37;;;;;;;10.07;2.40;;;21.90;99.90;;;;;;5040420;28;20056;-77
2022/07/25 12:27:03;;;;;;;5.68;2.10;;;22.10;99.90;;;;;;5022182;28;20549;-74
2022/07/25 12:29:29;;;;;;;8.90;2.30;;;22.10;99.90;;;;;;5033192;28;20049;-79
2022/07/25 12:31:54;;;;;;;11.20;2.15;;;21.90;99.90;;;;;;5038730;28;20048;-79
2022/07/25 12:34:20;;;;;;;8.07;1.98;;;22.00;99.90;;;;;;5032069;28;20056;-77
2022/07/25 12:36:45;;;;;;;7.95;2.10;;;21.80;99.90;;;;;;5025743;28;20041;-76
2022/07/25 12:39:11;;;;;;;6.70;2.10;;;21.90;99.90;;;;;;5029442;28;20065;-77
2022/07/25 12:41:38;;;;;;;10.32;2.50;;;21.80;99.90;;;;;;5044587;28;20041;-77
2022/07/25 12:44:04;;;;;;;5.82;1.80;;;21.80;99.90;;;;;;5037174;28;20042;-77